createdAt,value
2022-12-01T00:01:31.926Z,13.82
2022-12-01T00:03:59.118Z,17.88
2022-12-01T00:06:26.253Z,13.73
2022-12-01T00:09:16.497Z,15.38
2022-12-01T00:11:46.277Z,17.35
2022-12-01T00:14:13.573Z,12.85
2022-12-01T00:16:43.440Z,10.73
2022-12-01T00:19:10.488Z,13.07
2022-12-01T00:21:37.637Z,20.30
2022-12-01T00:24:05.042Z,11.98
2022-12-01T00:26:32.060Z,13.63
2022-12-01T00:28:59.689Z,12.98
2022-12-01T00:31:27.348Z,12.18
2022-12-01T00:33:55.075Z,12.20
2022-12-01T00:36:25.271Z,10.25
2022-12-01T00:38:56.682Z,13.13
2022-12-01T00:41:28.359Z,11.98
2022-12-01T00:43:55.505Z,15.23
2022-12-01T00:46:28.326Z,12.50
2022-12-01T00:49:07.479Z,13.40
2022-12-01T00:51:34.748Z,9.93
2022-12-01T00:54:06.758Z,12.52
2022-12-01T00:56:36.157Z,8.95
2022-12-01T00:59:05.528Z,12.30
2022-12-01T01:01:33.486Z,11.00
2022-12-01T01:04:00.845Z,8.05
2022-12-01T01:06:32.516Z,8.57
2022-12-01T01:11:33.211Z,13.45
2022-12-01T01:14:08.416Z,7.82
2022-12-01T01:16:37.820Z,10.00
2022-12-01T01:19:05.038Z,8.18
2022-12-01T01:21:34.994Z,9.40
2022-12-01T01:24:02.450Z,7.72
2022-12-01T01:26:31.763Z,13.63
2022-12-01T01:29:03.847Z,8.75
2022-12-01T01:31:31.807Z,13.43
2022-12-01T01:34:00.247Z,9.07
2022-12-01T01:36:30.043Z,8.80
2022-12-01T01:38:57.371Z,9.65
2022-12-01T01:41:29.775Z,11.55
2022-12-01T01:44:05.796Z,9.13
2022-12-01T01:46:36.951Z,14.77
2022-12-01T01:49:08.888Z,6.63
2022-12-01T01:51:41.764Z,12.73
2022-12-01T01:54:15.770Z,6.85
2022-12-01T01:56:45.343Z,14.10
2022-12-01T01:59:16.810Z,7.35
2022-12-01T02:01:47.424Z,7.53
2022-12-01T02:04:16.280Z,14.15
2022-12-01T02:06:43.859Z,7.05
2022-12-01T02:09:12.877Z,8.77
2022-12-01T02:11:52.369Z,5.65
2022-12-01T02:14:47.837Z,12.27
2022-12-01T02:17:41.503Z,14.98
2022-12-01T02:20:42.472Z,6.78
2022-12-01T02:23:53.960Z,5.95
2022-12-01T02:26:46.808Z,15.80
2022-12-01T02:29:49.037Z,6.35
2022-12-01T02:32:29.777Z,11.07
2022-12-01T02:35:12.901Z,7.80
2022-12-01T02:40:29.158Z,9.18
2022-12-01T02:43:24.324Z,4.72
2022-12-01T02:46:15.851Z,6.47
2022-12-01T02:48:48.408Z,7.20
2022-12-01T02:51:32.251Z,9.57
2022-12-01T02:54:03.989Z,9.32
2022-12-01T02:56:43.624Z,6.93
2022-12-01T02:59:12.228Z,7.53
2022-12-01T03:02:16.212Z,7.28
2022-12-01T03:05:08.166Z,5.30
2022-12-01T03:07:41.146Z,15.93
2022-12-01T03:10:23.749Z,9.80
2022-12-01T03:13:18.040Z,12.82
2022-12-01T03:16:16.610Z,12.05
2022-12-01T03:18:47.836Z,10.27
2022-12-01T03:21:26.766Z,10.98
2022-12-01T03:24:01.971Z,12.25
2022-12-01T03:26:35.537Z,8.77
2022-12-01T03:29:11.052Z,15.77
2022-12-01T03:31:45.512Z,11.63
2022-12-01T03:34:18.124Z,17.02
2022-12-01T03:36:50.767Z,16.17
2022-12-01T03:39:23.375Z,15.02
2022-12-01T03:42:20.955Z,19.17
2022-12-01T03:44:51.910Z,12.63
2022-12-01T03:47:27.560Z,33.63
2022-12-01T03:49:55.765Z,11.50
2022-12-01T03:52:42.105Z,15.63
2022-12-01T03:55:21.926Z,17.17
2022-12-01T03:58:06.601Z,10.75
2022-12-01T04:00:35.091Z,14.65
2022-12-01T04:03:04.281Z,12.73
2022-12-01T04:05:33.963Z,8.48
2022-12-01T04:08:04.389Z,18.05
2022-12-01T04:10:34.746Z,10.43
2022-12-01T04:13:05.745Z,10.57
2022-12-01T04:15:35.551Z,12.07
2022-12-01T04:18:04.551Z,19.50
2022-12-01T04:20:34.996Z,13.40
2022-12-01T04:25:34.181Z,9.13
2022-12-01T04:28:01.475Z,8.15
2022-12-01T04:30:28.756Z,14.55
2022-12-01T04:32:57.833Z,15.63
2022-12-01T04:35:27.703Z,14.82
2022-12-01T04:37:54.878Z,16.30
2022-12-01T04:40:38.880Z,11.93
2022-12-01T04:43:06.201Z,10.40
2022-12-01T04:45:33.557Z,12.38
2022-12-01T04:48:00.661Z,16.00
2022-12-01T04:50:27.996Z,11.32
2022-12-01T04:52:55.203Z,23.55
2022-12-01T05:45:50.693Z,21.33
2022-12-01T05:48:18.414Z,16.30
2022-12-01T05:50:47.878Z,15.68
2022-12-01T05:53:15.782Z,22.25
2022-12-01T05:55:43.029Z,22.38
2022-12-01T05:58:10.815Z,15.75
2022-12-01T06:00:45.571Z,17.42
2022-12-01T06:03:16.397Z,16.75
2022-12-01T06:05:46.433Z,18.80
2022-12-01T06:08:14.007Z,18.05
2022-12-01T06:10:43.654Z,18.83
2022-12-01T06:13:10.894Z,22.40
2022-12-01T06:15:41.290Z,20.52
2022-12-01T06:18:08.474Z,17.30
2022-12-01T06:20:35.782Z,17.75
2022-12-01T06:23:05.762Z,20.02
2022-12-01T06:25:33.046Z,20.48
2022-12-01T06:28:02.826Z,23.55
2022-12-01T06:30:30.167Z,18.90
2022-12-01T06:32:57.169Z,15.60
2022-12-01T06:35:24.278Z,14.98
2022-12-01T06:37:54.406Z,17.55
2022-12-01T06:40:21.745Z,15.32
2022-12-01T06:42:51.058Z,18.05
2022-12-01T06:45:22.136Z,19.02
2022-12-01T06:47:54.211Z,24.30
2022-12-01T06:50:24.664Z,18.00
2022-12-01T06:55:25.104Z,24.73
2022-12-01T06:57:54.925Z,18.65
2022-12-01T07:00:22.729Z,23.33
2022-12-01T07:02:49.778Z,21.70
2022-12-01T07:05:27.613Z,20.70
2022-12-01T07:07:59.301Z,21.95
2022-12-01T07:10:34.326Z,20.55
2022-12-01T07:13:04.734Z,19.08
2022-12-01T07:15:32.974Z,19.55
2022-12-01T07:18:00.344Z,20.50
2022-12-01T07:20:27.707Z,20.98
2022-12-01T07:22:54.842Z,21.02
2022-12-01T07:25:22.366Z,17.75
2022-12-01T07:27:53.349Z,19.67
2022-12-01T07:30:23.095Z,25.38
2022-12-01T07:32:54.191Z,23.95
2022-12-01T07:35:24.866Z,26.77
2022-12-01T07:37:56.258Z,25.17
2022-12-01T07:40:25.439Z,23.13
2022-12-01T07:42:55.795Z,27.00
2022-12-01T07:45:30.843Z,25.67
2022-12-01T07:47:57.988Z,33.33
2022-12-01T07:50:25.696Z,31.67
2022-12-01T07:52:53.148Z,25.63
2022-12-01T07:55:23.248Z,31.70
2022-12-01T07:57:50.776Z,27.42
2022-12-01T08:00:27.720Z,32.78
2022-12-01T08:02:55.458Z,24.08
2022-12-01T08:05:23.657Z,26.42
2022-12-01T08:07:53.677Z,31.88
2022-12-01T08:10:21.138Z,30.25
2022-12-01T08:12:48.691Z,32.38
2022-12-01T08:15:16.817Z,34.97
2022-12-01T08:17:44.185Z,29.90
2022-12-01T08:20:24.170Z,38.20
2022-12-01T08:22:51.771Z,30.85
2022-12-01T08:25:21.511Z,31.02
2022-12-01T08:27:48.999Z,29.85
2022-12-01T08:30:16.529Z,29.38
2022-12-01T08:32:43.872Z,24.02
2022-12-01T08:35:11.449Z,28.65
2022-12-01T08:37:38.943Z,29.15
2022-12-01T08:40:06.852Z,36.35
2022-12-01T08:42:34.125Z,26.30
2022-12-01T08:45:01.325Z,26.80
2022-12-01T08:47:31.746Z,28.58
2022-12-01T08:49:58.855Z,24.73
2022-12-01T08:52:28.130Z,28.70
2022-12-01T08:54:55.548Z,31.63
2022-12-01T08:57:25.880Z,34.88
2022-12-01T08:59:53.413Z,21.55
2022-12-01T09:02:26.550Z,30.38
2022-12-01T09:04:54.004Z,27.95
2022-12-01T09:07:26.023Z,25.20
2022-12-01T09:09:54.271Z,22.92
2022-12-01T09:12:28.764Z,23.50
2022-12-01T09:14:56.482Z,26.40
2022-12-01T09:17:28.309Z,27.27
2022-12-01T09:19:55.446Z,23.25
2022-12-01T09:22:27.105Z,19.65
2022-12-01T09:24:54.348Z,29.02
2022-12-01T09:27:22.024Z,22.17
2022-12-01T09:29:49.492Z,27.88
2022-12-01T09:32:18.160Z,26.00
2022-12-01T09:34:47.782Z,33.17
2022-12-01T09:37:15.038Z,39.88
2022-12-01T09:39:42.174Z,24.52
2022-12-01T09:42:15.550Z,33.83
2022-12-01T09:44:53.360Z,26.05
2022-12-01T09:47:31.952Z,25.80
2022-12-01T09:50:05.401Z,24.00
2022-12-01T09:52:40.352Z,25.45
2022-12-01T09:57:44.009Z,25.92
2022-12-01T10:00:34.526Z,25.35
2022-12-01T10:03:10.691Z,27.08
2022-12-01T10:09:00.236Z,19.67
2022-12-01T10:11:37.738Z,20.75
2022-12-01T10:14:19.474Z,21.25
2022-12-01T10:17:19.478Z,24.55
2022-12-01T10:20:07.011Z,22.05
2022-12-01T10:22:56.050Z,22.85
2022-12-01T10:25:28.736Z,21.27
2022-12-01T10:28:11.316Z,20.73
2022-12-01T10:30:51.681Z,18.92
2022-12-01T10:33:35.853Z,22.20
2022-12-01T10:36:09.165Z,19.27
2022-12-01T10:38:39.463Z,21.58
2022-12-01T10:41:12.524Z,22.67
2022-12-01T10:43:44.104Z,19.90
2022-12-01T10:46:25.022Z,26.10
2022-12-01T10:48:57.468Z,21.88
2022-12-01T10:51:26.403Z,21.42
2022-12-01T10:54:07.075Z,19.17
2022-12-01T10:56:41.812Z,22.27
2022-12-01T10:59:31.936Z,25.80
2022-12-01T11:02:00.922Z,20.38
2022-12-01T11:04:46.625Z,21.50
2022-12-01T11:07:46.290Z,20.08
2022-12-01T11:10:26.287Z,22.88
2022-12-01T11:12:59.322Z,24.80
2022-12-01T11:15:30.717Z,25.73
2022-12-01T11:18:29.744Z,21.13
2022-12-01T11:21:26.166Z,20.17
2022-12-01T11:23:56.193Z,18.02
2022-12-01T11:26:27.693Z,17.55
2022-12-01T11:28:58.576Z,22.90
2022-12-01T11:31:48.856Z,20.98
2022-12-01T11:34:20.761Z,21.33
2022-12-01T11:36:54.817Z,16.45
2022-12-01T11:39:32.587Z,18.60
2022-12-01T11:42:04.922Z,20.55
2022-12-01T11:44:50.727Z,20.30
2022-12-01T11:47:26.968Z,17.08
2022-12-01T11:50:00.409Z,17.75
2022-12-01T11:52:31.895Z,16.27
2022-12-01T11:55:10.188Z,18.42
2022-12-01T11:57:46.725Z,16.23
2022-12-01T12:00:15.597Z,18.27
2022-12-01T12:03:06.078Z,18.17
2022-12-01T12:06:17.820Z,18.05
2022-12-01T12:08:51.220Z,18.27
2022-12-01T12:11:39.898Z,22.65
2022-12-01T12:14:28.345Z,24.42
2022-12-01T12:17:20.723Z,15.63
2022-12-01T12:20:07.292Z,18.35
2022-12-01T12:22:55.655Z,19.25
2022-12-01T12:25:59.068Z,17.52
2022-12-01T12:29:07.147Z,19.80
2022-12-01T12:31:41.988Z,18.65
2022-12-01T12:34:23.715Z,17.38
2022-12-01T12:37:24.489Z,15.57
2022-12-01T12:40:11.552Z,14.93
2022-12-01T12:42:52.429Z,21.27
2022-12-01T12:45:36.345Z,18.23
2022-12-01T12:48:23.900Z,19.75
2022-12-01T12:51:06.558Z,21.50
2022-12-01T12:53:50.677Z,18.45
2022-12-01T12:56:23.303Z,22.58
2022-12-01T12:59:00.154Z,17.83
2022-12-01T13:01:44.883Z,17.85
2022-12-01T13:04:26.376Z,22.05
2022-12-01T13:07:23.311Z,19.45
2022-12-01T13:10:01.121Z,19.45
2022-12-01T13:12:32.989Z,18.00
2022-12-01T13:15:13.875Z,20.17
2022-12-01T13:17:46.584Z,19.73
2022-12-01T13:20:18.448Z,21.55
2022-12-01T13:22:47.437Z,16.88
2022-12-01T13:25:18.756Z,16.88
2022-12-01T13:27:51.614Z,18.08
2022-12-01T13:30:22.364Z,18.30
2022-12-01T13:32:57.885Z,15.90
2022-12-01T13:35:35.165Z,15.15
2022-12-01T13:38:21.060Z,12.43
2022-12-01T13:40:52.286Z,11.57
2022-12-01T13:43:23.684Z,11.35
2022-12-01T13:46:06.046Z,15.38
2022-12-01T13:48:39.711Z,13.75
2022-12-01T13:51:08.999Z,14.93
2022-12-01T13:53:37.952Z,11.77
2022-12-01T13:56:17.519Z,10.57
2022-12-01T13:58:50.336Z,13.32
2022-12-01T14:01:25.757Z,11.32
2022-12-01T14:04:02.580Z,11.10
2022-12-01T14:06:41.576Z,11.90
2022-12-01T14:09:28.167Z,10.98
2022-12-01T14:12:09.276Z,11.88
2022-12-01T14:14:39.716Z,8.13
2022-12-01T14:17:28.791Z,10.30
2022-12-01T14:20:08.483Z,11.10
2022-12-01T14:22:44.516Z,12.23
2022-12-01T14:25:27.123Z,14.32
2022-12-01T14:28:06.960Z,12.07
2022-12-01T14:30:40.193Z,12.85
2022-12-01T14:33:52.452Z,10.10
2022-12-01T14:36:52.459Z,11.80
2022-12-01T14:39:35.721Z,9.15
2022-12-01T14:42:46.267Z,11.43
2022-12-01T14:45:20.119Z,12.55
2022-12-01T14:48:01.939Z,10.57
2022-12-01T14:50:52.810Z,10.38
2022-12-01T14:53:29.332Z,8.50
2022-12-01T14:56:01.099Z,11.25
2022-12-01T14:58:32.301Z,12.27
2022-12-01T15:01:14.205Z,11.05
2022-12-01T15:03:51.327Z,10.20
2022-12-01T15:06:23.795Z,10.82
2022-12-01T15:12:11.616Z,10.05
2022-12-01T15:14:48.208Z,10.77
2022-12-01T15:20:06.173Z,9.07
2022-12-01T15:22:36.035Z,10.65
2022-12-01T15:25:15.108Z,11.25
2022-12-01T15:27:45.807Z,10.10
2022-12-01T15:30:20.295Z,12.85
2022-12-01T15:32:47.677Z,15.60
2022-12-01T15:35:23.940Z,14.95
2022-12-01T15:37:52.862Z,11.05
2022-12-01T15:43:17.455Z,12.82
2022-12-01T15:45:56.996Z,14.82
2022-12-01T15:48:32.088Z,13.80
2022-12-01T15:51:07.252Z,14.27
2022-12-01T15:53:40.240Z,13.40
2022-12-01T15:56:09.918Z,12.05
2022-12-01T15:58:43.657Z,10.20
2022-12-01T16:01:15.578Z,12.63
2022-12-01T16:03:59.029Z,10.70
2022-12-01T16:06:36.367Z,12.77
2022-12-01T16:09:07.644Z,10.68
2022-12-01T16:11:35.193Z,10.63
2022-12-01T16:14:08.117Z,9.10
2022-12-01T16:16:49.518Z,11.60
2022-12-01T16:19:16.686Z,16.70
2022-12-01T16:21:47.246Z,16.27
2022-12-01T16:26:53.140Z,11.93
2022-12-01T16:29:25.623Z,15.15
2022-12-01T16:32:19.257Z,12.18
2022-12-01T16:34:47.478Z,17.23
2022-12-01T16:39:43.141Z,13.43
2022-12-01T16:42:23.309Z,15.77
2022-12-01T16:44:53.399Z,14.35
2022-12-01T16:47:24.543Z,14.15
2022-12-01T16:49:52.841Z,11.10
2022-12-01T16:52:44.087Z,11.77
2022-12-01T16:55:38.000Z,10.27
2022-12-01T16:58:05.802Z,12.48
2022-12-01T17:00:36.275Z,10.65
2022-12-01T17:05:32.237Z,10.27
2022-12-01T17:07:59.649Z,14.57
2022-12-01T17:10:29.718Z,14.57
2022-12-01T17:12:57.735Z,15.43
2022-12-01T17:15:28.008Z,19.92
2022-12-01T17:17:55.356Z,19.27
2022-12-01T17:20:22.642Z,15.30
2022-12-01T17:22:50.074Z,14.90
2022-12-01T17:25:17.350Z,20.25
2022-12-01T17:27:45.778Z,16.88
2022-12-01T17:30:16.550Z,20.98
2022-12-01T17:32:44.253Z,17.75
2022-12-01T17:35:13.977Z,17.98
2022-12-01T17:37:41.275Z,19.48
2022-12-01T17:40:11.753Z,18.33
2022-12-01T17:45:10.525Z,16.23
2022-12-01T17:47:40.308Z,22.10
2022-12-01T17:50:13.338Z,16.35
2022-12-01T17:52:43.472Z,24.02
2022-12-01T17:55:13.522Z,22.42
2022-12-01T17:57:40.943Z,21.55
2022-12-01T18:00:19.110Z,20.90
2022-12-01T18:02:54.976Z,17.63
2022-12-01T18:05:29.517Z,17.08
2022-12-01T18:07:56.739Z,22.40
2022-12-01T18:10:26.819Z,21.65
2022-12-01T18:12:54.036Z,23.20
2022-12-01T18:15:34.461Z,19.75
2022-12-01T18:18:03.544Z,18.70
2022-12-01T18:20:30.989Z,19.77
2022-12-01T18:22:58.144Z,20.60
2022-12-01T18:25:25.602Z,21.85
2022-12-01T18:27:58.311Z,23.88
2022-12-01T18:30:26.876Z,23.48
2022-12-01T18:32:54.672Z,21.77
2022-12-01T18:35:28.827Z,21.05
2022-12-01T18:38:00.052Z,21.52
2022-12-01T18:40:27.377Z,23.35
2022-12-01T18:42:54.829Z,23.27
2022-12-01T18:45:28.915Z,24.55
2022-12-01T18:47:56.261Z,24.25
2022-12-01T18:50:23.643Z,21.88
2022-12-01T18:52:51.289Z,26.85
2022-12-01T18:55:21.440Z,23.25
2022-12-01T18:57:51.746Z,20.80
2022-12-01T19:00:26.216Z,23.75
2022-12-01T19:02:56.511Z,22.67
2022-12-01T19:05:28.600Z,25.02
2022-12-01T19:07:55.722Z,23.85
2022-12-01T19:10:23.143Z,22.65
2022-12-01T19:12:52.516Z,25.25
2022-12-01T19:15:23.375Z,22.20
2022-12-01T19:17:54.703Z,22.50
2022-12-01T19:20:21.719Z,23.70
2022-12-01T19:22:48.895Z,24.48
2022-12-01T19:25:16.254Z,24.55
2022-12-01T19:27:43.789Z,30.08
2022-12-01T19:30:14.519Z,20.27
2022-12-01T19:32:43.816Z,23.58
2022-12-01T19:35:11.329Z,25.58
2022-12-01T19:37:38.506Z,20.40
2022-12-01T19:40:09.325Z,21.90
2022-12-01T19:42:36.655Z,24.73
2022-12-01T19:45:08.119Z,16.52
2022-12-01T19:47:35.531Z,23.77
2022-12-01T19:50:05.891Z,20.08
2022-12-01T19:55:01.426Z,26.83
2022-12-01T19:57:30.929Z,23.95
2022-12-01T20:00:01.176Z,25.95
2022-12-01T20:02:32.494Z,26.60
2022-12-01T20:04:59.841Z,26.50
2022-12-01T20:07:30.235Z,24.73
2022-12-01T20:09:57.355Z,21.15
2022-12-01T20:12:30.272Z,23.25
2022-12-01T20:14:57.974Z,25.67
2022-12-01T20:17:27.947Z,28.63
2022-12-01T20:19:55.143Z,18.88
2022-12-01T20:22:22.567Z,24.75
2022-12-01T20:24:50.221Z,24.90
2022-12-01T20:27:27.759Z,16.80
2022-12-01T20:29:55.142Z,25.83
2022-12-01T20:32:28.446Z,22.20
2022-12-01T20:34:55.467Z,29.35
2022-12-01T20:37:24.913Z,25.05
2022-12-01T20:39:52.066Z,30.77
2022-12-01T20:42:28.406Z,29.60
2022-12-01T20:44:58.616Z,25.77
2022-12-01T20:47:30.306Z,30.58
2022-12-01T20:49:58.524Z,30.88
2022-12-01T20:52:25.767Z,31.45
2022-12-01T20:54:53.223Z,34.25
2022-12-01T20:57:24.373Z,37.33
2022-12-01T20:59:54.000Z,30.30
2022-12-01T21:02:27.328Z,28.85
2022-12-01T21:04:58.829Z,24.63
2022-12-01T21:07:33.500Z,26.10
2022-12-01T21:10:01.072Z,25.92
2022-12-01T21:12:48.122Z,28.35
2022-12-01T21:15:51.125Z,27.20
2022-12-01T21:18:24.927Z,25.05
2022-12-01T21:21:02.970Z,27.00
2022-12-01T21:23:30.758Z,30.33
2022-12-01T21:25:59.035Z,29.75
2022-12-01T21:28:37.069Z,31.02
2022-12-01T21:31:14.749Z,23.05
2022-12-01T21:33:42.196Z,26.20
2022-12-01T21:36:20.232Z,27.75
2022-12-01T21:38:50.450Z,27.33
2022-12-01T21:41:30.760Z,34.63
2022-12-01T21:44:07.673Z,26.67
2022-12-01T21:46:37.322Z,29.50
2022-12-01T21:49:38.631Z,32.47
2022-12-01T21:52:20.707Z,27.70
2022-12-01T21:54:49.133Z,26.42
2022-12-01T21:57:42.930Z,30.45
2022-12-01T22:00:40.196Z,31.05
2022-12-01T22:03:21.848Z,30.83
2022-12-01T22:06:13.709Z,26.05
2022-12-01T22:11:27.105Z,28.23
2022-12-01T22:14:15.576Z,27.65
2022-12-01T22:16:48.635Z,37.55
2022-12-01T22:19:15.672Z,30.65
2022-12-01T22:21:50.437Z,30.33
2022-12-01T22:24:17.365Z,27.23
2022-12-01T22:26:48.055Z,27.08
2022-12-01T22:29:28.770Z,32.42
2022-12-01T22:32:06.681Z,25.65
2022-12-01T22:34:34.213Z,24.48
2022-12-01T22:37:01.320Z,23.63
2022-12-01T22:39:35.696Z,24.38
2022-12-01T22:42:16.928Z,24.80
2022-12-01T22:44:45.080Z,25.27
2022-12-01T22:47:15.234Z,27.35
2022-12-01T22:49:42.726Z,26.67
2022-12-01T22:52:26.702Z,25.88
2022-12-01T22:54:54.118Z,26.00
2022-12-01T22:57:37.172Z,25.25
2022-12-01T23:00:17.869Z,29.77
2022-12-01T23:02:48.688Z,30.45
2022-12-01T23:05:29.700Z,29.00
2022-12-01T23:07:57.532Z,29.35
2022-12-01T23:10:42.861Z,27.42
2022-12-01T23:13:16.707Z,30.80
2022-12-01T23:15:50.314Z,21.35
2022-12-01T23:18:26.965Z,28.85
2022-12-01T23:20:59.158Z,29.00
2022-12-01T23:23:35.131Z,24.95
2022-12-01T23:26:08.871Z,27.90
2022-12-01T23:28:38.705Z,26.58
2022-12-01T23:31:06.176Z,28.88
2022-12-01T23:33:36.626Z,27.75
2022-12-01T23:36:21.641Z,28.00
2022-12-01T23:38:56.044Z,23.67
2022-12-01T23:41:28.539Z,30.63
2022-12-01T23:43:58.680Z,29.65
2022-12-01T23:46:28.510Z,29.42
2022-12-01T23:49:04.316Z,26.75
2022-12-01T23:51:37.230Z,24.90
2022-12-01T23:54:14.275Z,27.15
2022-12-01T23:56:42.865Z,29.10
2022-12-01T23:59:14.284Z,28.38
